RYR5TE EBCI-LKPR
Flight info
| Callsign | RYR5TE |
|---|---|
| Flight time | 1h 6m |
| Altitude | 35000 |
| Route | SOPOK Y863 OGLOR DCT EMGOD DCT BOMBI DCT BOREP DCT TONSU Z35 ODOMO DCT LOMKI |
| Aircraft | B738/M-SDE2E3FGHIRWXY/LB1 |
Departure
| Time | 2026-05-06 18:22 |
|---|---|
| Airport | Brussels South Charleroi Airport (EBCI) |
Arrival
| Time | 2026-05-06 19:29 |
|---|---|
| Airport | Václav Havel Airport Prague (LKPR) |
| Time | Latitude | Longitude | Altitude | Speed | Heading |
|---|---|---|---|---|---|
| 2026-05-06 17:56 | 50.46671 | 4.46410 | 585 ft | 0 kts | 335° |
| 2026-05-06 18:12 | 50.46660 | 4.46418 | 586 ft | 4 kts | 335° |
| 2026-05-06 18:13 | 50.46637 | 4.46431 | 587 ft | 4 kts | 7° |
| 2026-05-06 18:13 | 50.46615 | 4.46415 | 587 ft | 4 kts | 49° |
| 2026-05-06 18:13 | 50.46602 | 4.46387 | 586 ft | 2 kts | 65° |
| 2026-05-06 18:13 | 50.46600 | 4.46379 | 586 ft | 1 kts | 65° |
| 2026-05-06 18:16 | 50.46601 | 4.46382 | 586 ft | 1 kts | 65° |
| 2026-05-06 18:16 | 50.46611 | 4.46417 | 587 ft | 6 kts | 64° |
| 2026-05-06 18:17 | 50.46625 | 4.46495 | 588 ft | 9 kts | 102° |
| 2026-05-06 18:17 | 50.46579 | 4.46552 | 590 ft | 9 kts | 153° |
| 2026-05-06 18:17 | 50.46562 | 4.46648 | 590 ft | 11 kts | 69° |
| 2026-05-06 18:17 | 50.46598 | 4.46773 | 591 ft | 14 kts | 65° |
| 2026-05-06 18:18 | 50.46628 | 4.46876 | 593 ft | 3 kts | 65° |
| 2026-05-06 18:18 | 50.46639 | 4.46914 | 593 ft | 5 kts | 65° |
| 2026-05-06 18:18 | 50.46659 | 4.46979 | 593 ft | 9 kts | 65° |
| 2026-05-06 18:18 | 50.46692 | 4.47095 | 591 ft | 15 kts | 65° |
| 2026-05-06 18:19 | 50.46741 | 4.47263 | 590 ft | 17 kts | 65° |
| 2026-05-06 18:19 | 50.46791 | 4.47436 | 587 ft | 17 kts | 65° |
| 2026-05-06 18:19 | 50.46833 | 4.47579 | 589 ft | 8 kts | 65° |
| 2026-05-06 18:19 | 50.46842 | 4.47615 | 590 ft | 0 kts | 77° |
| 2026-05-06 18:20 | 50.46842 | 4.47616 | 590 ft | 1 kts | 78° |
| 2026-05-06 18:20 | 50.46841 | 4.47640 | 591 ft | 2 kts | 106° |
| 2026-05-06 18:20 | 50.46831 | 4.47659 | 592 ft | 2 kts | 136° |
| 2026-05-06 18:21 | 50.46815 | 4.47675 | 593 ft | 3 kts | 152° |
| 2026-05-06 18:21 | 50.46785 | 4.47697 | 594 ft | 7 kts | 155° |
| 2026-05-06 18:21 | 50.46714 | 4.47725 | 593 ft | 15 kts | 194° |
| 2026-05-06 18:21 | 50.46637 | 4.47527 | 594 ft | 40 kts | 245° |
| 2026-05-06 18:22 | 50.46415 | 4.46766 | 593 ft | 111 kts | 245° |
| 2026-05-06 18:22 | 50.46010 | 4.45372 | 639 ft | 164 kts | 246° |
| 2026-05-06 18:22 | 50.45534 | 4.43739 | 1311 ft | 166 kts | 246° |
| 2026-05-06 18:22 | 50.45049 | 4.42065 | 2077 ft | 169 kts | 247° |
| 2026-05-06 18:23 | 50.44560 | 4.40372 | 2789 ft | 169 kts | 248° |
| 2026-05-06 18:23 | 50.44069 | 4.38681 | 3457 ft | 176 kts | 248° |
| 2026-05-06 18:23 | 50.43562 | 4.36934 | 4075 ft | 180 kts | 248° |
| 2026-05-06 18:23 | 50.43013 | 4.35043 | 4441 ft | 204 kts | 248° |
| 2026-05-06 18:24 | 50.42392 | 4.32904 | 4684 ft | 224 kts | 248° |
| 2026-05-06 18:24 | 50.41416 | 4.30948 | 5133 ft | 237 kts | 213° |
| 2026-05-06 18:24 | 50.39811 | 4.30266 | 5440 ft | 255 kts | 175° |
| 2026-05-06 18:24 | 50.38114 | 4.31317 | 5676 ft | 273 kts | 137° |
| 2026-05-06 18:25 | 50.36860 | 4.33611 | 6277 ft | 280 kts | 119° |
| 2026-05-06 18:25 | 50.36251 | 4.36487 | 7032 ft | 277 kts | 96° |
| 2026-05-06 18:25 | 50.36030 | 4.39513 | 7673 ft | 284 kts | 92° |
| 2026-05-06 18:25 | 50.35857 | 4.42610 | 8402 ft | 288 kts | 92° |
| 2026-05-06 18:26 | 50.35685 | 4.45753 | 9131 ft | 291 kts | 92° |
| 2026-05-06 18:26 | 50.35499 | 4.48932 | 9841 ft | 295 kts | 93° |
| 2026-05-06 18:26 | 50.35296 | 4.52167 | 10390 ft | 307 kts | 94° |
| 2026-05-06 18:26 | 50.35066 | 4.55615 | 10566 ft | 329 kts | 94° |
| 2026-05-06 18:27 | 50.34812 | 4.59251 | 11031 ft | 340 kts | 95° |
| 2026-05-06 18:27 | 50.34544 | 4.62951 | 11695 ft | 344 kts | 95° |
| 2026-05-06 18:27 | 50.34267 | 4.66683 | 12448 ft | 346 kts | 95° |
| 2026-05-06 18:27 | 50.33983 | 4.70437 | 13161 ft | 349 kts | 96° |
| 2026-05-06 18:28 | 50.33694 | 4.74238 | 13809 ft | 354 kts | 96° |
| 2026-05-06 18:28 | 50.33399 | 4.78078 | 14523 ft | 357 kts | 96° |
| 2026-05-06 18:28 | 50.33099 | 4.81961 | 15231 ft | 361 kts | 96° |
| 2026-05-06 18:28 | 50.32794 | 4.85879 | 15906 ft | 365 kts | 97° |
| 2026-05-06 18:29 | 50.32485 | 4.89835 | 16579 ft | 368 kts | 97° |
| 2026-05-06 18:29 | 50.32171 | 4.93836 | 17255 ft | 372 kts | 97° |
| 2026-05-06 18:29 | 50.31855 | 4.97855 | 17907 ft | 374 kts | 97° |
| 2026-05-06 18:29 | 50.31531 | 5.01933 | 18478 ft | 380 kts | 98° |
| 2026-05-06 18:30 | 50.31203 | 5.06051 | 19066 ft | 383 kts | 98° |
| 2026-05-06 18:30 | 50.30872 | 5.10203 | 19675 ft | 386 kts | 98° |
| 2026-05-06 18:30 | 50.30545 | 5.14385 | 20245 ft | 390 kts | 97° |
| 2026-05-06 18:30 | 50.30285 | 5.18629 | 20793 ft | 394 kts | 96° |
| 2026-05-06 18:31 | 50.30067 | 5.22915 | 21359 ft | 397 kts | 95° |
| 2026-05-06 18:31 | 50.29859 | 5.27236 | 21882 ft | 400 kts | 95° |
| 2026-05-06 18:31 | 50.29647 | 5.31595 | 22406 ft | 404 kts | 96° |
| 2026-05-06 18:31 | 50.29426 | 5.35992 | 22925 ft | 406 kts | 96° |
| 2026-05-06 18:32 | 50.29198 | 5.40407 | 23430 ft | 409 kts | 96° |
| 2026-05-06 18:32 | 50.28962 | 5.44852 | 23919 ft | 412 kts | 96° |
| 2026-05-06 18:32 | 50.28719 | 5.49325 | 24381 ft | 414 kts | 96° |
| 2026-05-06 18:32 | 50.28470 | 5.53830 | 24833 ft | 417 kts | 97° |
| 2026-05-06 18:33 | 50.28217 | 5.58361 | 25257 ft | 420 kts | 97° |
| 2026-05-06 18:33 | 50.27961 | 5.62926 | 25681 ft | 423 kts | 97° |
| 2026-05-06 18:33 | 50.27701 | 5.67514 | 26095 ft | 425 kts | 97° |
| 2026-05-06 18:33 | 50.27438 | 5.72132 | 26498 ft | 428 kts | 97° |
| 2026-05-06 18:34 | 50.27172 | 5.76779 | 26893 ft | 430 kts | 97° |
| 2026-05-06 18:34 | 50.26902 | 5.81446 | 27261 ft | 433 kts | 97° |
| 2026-05-06 18:34 | 50.26628 | 5.86148 | 27609 ft | 435 kts | 97° |
| 2026-05-06 18:34 | 50.26351 | 5.90871 | 27957 ft | 438 kts | 97° |
| 2026-05-06 18:35 | 50.26072 | 5.95613 | 28304 ft | 440 kts | 97° |
| 2026-05-06 18:35 | 50.25788 | 6.00387 | 28642 ft | 442 kts | 97° |
| 2026-05-06 18:35 | 50.25502 | 6.05181 | 28977 ft | 444 kts | 98° |
| 2026-05-06 18:35 | 50.25211 | 6.09993 | 29290 ft | 446 kts | 98° |
| 2026-05-06 18:36 | 50.24918 | 6.14835 | 29582 ft | 449 kts | 98° |
| 2026-05-06 18:36 | 50.24622 | 6.19693 | 29875 ft | 451 kts | 98° |
| 2026-05-06 18:36 | 50.24322 | 6.24571 | 30224 ft | 451 kts | 98° |
| 2026-05-06 18:36 | 50.24022 | 6.29432 | 30665 ft | 449 kts | 98° |
| 2026-05-06 18:37 | 50.23721 | 6.34276 | 31082 ft | 447 kts | 98° |
| 2026-05-06 18:37 | 50.23521 | 6.37468 | 31306 ft | 447 kts | 98° |
| 2026-05-06 18:37 | 50.23113 | 6.43940 | 31736 ft | 448 kts | 98° |
| 2026-05-06 18:37 | 50.22806 | 6.48774 | 32086 ft | 447 kts | 98° |
| 2026-05-06 18:38 | 50.22496 | 6.53604 | 32421 ft | 447 kts | 98° |
| 2026-05-06 18:38 | 50.22185 | 6.58427 | 32712 ft | 447 kts | 98° |
| 2026-05-06 18:38 | 50.21872 | 6.63252 | 33046 ft | 446 kts | 98° |
| 2026-05-06 18:38 | 50.21557 | 6.68066 | 33374 ft | 445 kts | 98° |
| 2026-05-06 18:39 | 50.21241 | 6.72873 | 33652 ft | 445 kts | 99° |
| 2026-05-06 18:39 | 50.20922 | 6.77682 | 33922 ft | 446 kts | 99° |
| 2026-05-06 18:39 | 50.20602 | 6.82495 | 34219 ft | 446 kts | 99° |
| 2026-05-06 18:40 | 50.19956 | 6.92123 | 34711 ft | 447 kts | 99° |
| 2026-05-06 18:40 | 50.19632 | 6.96884 | 34835 ft | 449 kts | 99° |
| 2026-05-06 18:40 | 50.19294 | 7.01818 | 34830 ft | 453 kts | 99° |
| 2026-05-06 18:41 | 50.18629 | 7.11497 | 34828 ft | 449 kts | 99° |
| 2026-05-06 18:41 | 50.17961 | 7.21114 | 34838 ft | 444 kts | 99° |
| 2026-05-06 18:42 | 50.17283 | 7.30705 | 34840 ft | 445 kts | 100° |
| 2026-05-06 18:42 | 50.16598 | 7.40296 | 34833 ft | 445 kts | 100° |
| 2026-05-06 18:43 | 50.15905 | 7.49887 | 34843 ft | 445 kts | 100° |
| 2026-05-06 18:43 | 50.15202 | 7.59484 | 34843 ft | 446 kts | 100° |
| 2026-05-06 18:44 | 50.14491 | 7.69095 | 34834 ft | 447 kts | 101° |
| 2026-05-06 18:44 | 50.13772 | 7.78709 | 34836 ft | 447 kts | 101° |
| 2026-05-06 18:45 | 50.13147 | 7.88350 | 34832 ft | 449 kts | 98° |
| 2026-05-06 18:45 | 50.12829 | 7.98071 | 34832 ft | 450 kts | 96° |
| 2026-05-06 18:46 | 50.12547 | 8.07812 | 34813 ft | 450 kts | 97° |
| 2026-05-06 18:46 | 50.12226 | 8.17529 | 34820 ft | 449 kts | 97° |
| 2026-05-06 18:47 | 50.11872 | 8.27248 | 34830 ft | 449 kts | 97° |
| 2026-05-06 18:47 | 50.11503 | 8.36961 | 34827 ft | 449 kts | 97° |
| 2026-05-06 18:48 | 50.11123 | 8.46684 | 34823 ft | 449 kts | 97° |
| 2026-05-06 18:48 | 50.10738 | 8.56390 | 34827 ft | 449 kts | 98° |
| 2026-05-06 18:49 | 50.10345 | 8.66101 | 34835 ft | 449 kts | 98° |
| 2026-05-06 18:49 | 50.09944 | 8.75803 | 34829 ft | 449 kts | 98° |
| 2026-05-06 18:50 | 50.09533 | 8.85506 | 34834 ft | 449 kts | 98° |
| 2026-05-06 18:50 | 50.09113 | 8.95291 | 34832 ft | 450 kts | 98° |
| 2026-05-06 18:51 | 50.08686 | 9.05024 | 34833 ft | 451 kts | 98° |
| 2026-05-06 18:51 | 50.08252 | 9.14776 | 34823 ft | 452 kts | 98° |
| 2026-05-06 18:52 | 50.07915 | 9.22923 | 34825 ft | 454 kts | 97° |
| 2026-05-06 18:52 | 50.07601 | 9.32767 | 34831 ft | 456 kts | 97° |
| 2026-05-06 18:53 | 50.07239 | 9.44256 | 34823 ft | 458 kts | 97° |
| 2026-05-06 18:53 | 50.06959 | 9.52555 | 34826 ft | 460 kts | 98° |
| 2026-05-06 18:54 | 50.06609 | 9.62509 | 34824 ft | 460 kts | 98° |
| 2026-05-06 18:54 | 50.06252 | 9.72459 | 34822 ft | 461 kts | 98° |
| 2026-05-06 18:55 | 50.05882 | 9.82423 | 34810 ft | 461 kts | 98° |
| 2026-05-06 18:55 | 50.05506 | 9.92374 | 34801 ft | 461 kts | 98° |
| 2026-05-06 18:56 | 50.05120 | 10.02315 | 34801 ft | 461 kts | 98° |
| 2026-05-06 18:56 | 50.04728 | 10.12271 | 34803 ft | 461 kts | 99° |
| 2026-05-06 18:57 | 50.04322 | 10.22209 | 34807 ft | 460 kts | 99° |
| 2026-05-06 18:57 | 50.03911 | 10.32142 | 34801 ft | 460 kts | 99° |
| 2026-05-06 18:58 | 50.03492 | 10.42063 | 34803 ft | 459 kts | 99° |
| 2026-05-06 18:58 | 50.03070 | 10.51986 | 34811 ft | 459 kts | 99° |
| 2026-05-06 18:59 | 50.02634 | 10.61899 | 34819 ft | 460 kts | 99° |
| 2026-05-06 18:59 | 50.02192 | 10.71820 | 34806 ft | 460 kts | 99° |
| 2026-05-06 19:00 | 50.01739 | 10.81735 | 34794 ft | 460 kts | 99° |
| 2026-05-06 19:00 | 50.01281 | 10.91589 | 34804 ft | 460 kts | 99° |
| 2026-05-06 19:01 | 50.00811 | 11.01516 | 34807 ft | 461 kts | 99° |
| 2026-05-06 19:01 | 50.00331 | 11.11458 | 34808 ft | 462 kts | 100° |
| 2026-05-06 19:02 | 49.99842 | 11.21432 | 34795 ft | 464 kts | 100° |
| 2026-05-06 19:02 | 49.99343 | 11.31439 | 34791 ft | 465 kts | 100° |
| 2026-05-06 19:03 | 49.98832 | 11.41477 | 34722 ft | 468 kts | 100° |
| 2026-05-06 19:03 | 49.98569 | 11.46554 | 34196 ft | 473 kts | 101° |
| 2026-05-06 19:03 | 49.98306 | 11.51643 | 33643 ft | 472 kts | 101° |
| 2026-05-06 19:03 | 49.98041 | 11.56733 | 33058 ft | 473 kts | 101° |
| 2026-05-06 19:04 | 49.97773 | 11.61826 | 32448 ft | 473 kts | 101° |
| 2026-05-06 19:04 | 49.97502 | 11.66922 | 31830 ft | 473 kts | 101° |
| 2026-05-06 19:04 | 49.97228 | 11.72019 | 31194 ft | 474 kts | 101° |
| 2026-05-06 19:04 | 49.96952 | 11.77120 | 30536 ft | 475 kts | 101° |
| 2026-05-06 19:05 | 49.96674 | 11.82235 | 29964 ft | 473 kts | 101° |
| 2026-05-06 19:05 | 49.96398 | 11.87286 | 29478 ft | 468 kts | 101° |
| 2026-05-06 19:05 | 49.96123 | 11.92295 | 28992 ft | 462 kts | 101° |
| 2026-05-06 19:05 | 49.95847 | 11.97238 | 28498 ft | 458 kts | 101° |
| 2026-05-06 19:06 | 49.95572 | 12.02135 | 28014 ft | 453 kts | 100° |
| 2026-05-06 19:06 | 49.95296 | 12.06991 | 27520 ft | 449 kts | 100° |
| 2026-05-06 19:06 | 49.95022 | 12.11794 | 27037 ft | 444 kts | 100° |
| 2026-05-06 19:06 | 49.94747 | 12.16548 | 26555 ft | 440 kts | 100° |
| 2026-05-06 19:07 | 49.94474 | 12.21257 | 26082 ft | 436 kts | 99° |
| 2026-05-06 19:07 | 49.94201 | 12.25926 | 25605 ft | 432 kts | 99° |
| 2026-05-06 19:07 | 49.93928 | 12.30555 | 25140 ft | 429 kts | 99° |
| 2026-05-06 19:07 | 49.93659 | 12.35141 | 24670 ft | 425 kts | 99° |
| 2026-05-06 19:08 | 49.93459 | 12.39697 | 24233 ft | 422 kts | 96° |
| 2026-05-06 19:08 | 49.93335 | 12.44227 | 23787 ft | 418 kts | 95° |
| 2026-05-06 19:08 | 49.93236 | 12.48725 | 23352 ft | 415 kts | 95° |
| 2026-05-06 19:08 | 49.93135 | 12.53173 | 22919 ft | 411 kts | 95° |
| 2026-05-06 19:09 | 49.93026 | 12.57583 | 22481 ft | 407 kts | 95° |
| 2026-05-06 19:09 | 49.92909 | 12.61907 | 22076 ft | 404 kts | 96° |
| 2026-05-06 19:09 | 49.92783 | 12.66304 | 21643 ft | 401 kts | 96° |
| 2026-05-06 19:09 | 49.92654 | 12.70610 | 21226 ft | 399 kts | 96° |
| 2026-05-06 19:10 | 49.92524 | 12.74833 | 20806 ft | 396 kts | 96° |
| 2026-05-06 19:10 | 49.92392 | 12.79090 | 20399 ft | 394 kts | 96° |
| 2026-05-06 19:10 | 49.92257 | 12.83384 | 19978 ft | 392 kts | 96° |
| 2026-05-06 19:10 | 49.92124 | 12.87545 | 19573 ft | 390 kts | 96° |
| 2026-05-06 19:11 | 49.91989 | 12.91732 | 19167 ft | 388 kts | 96° |
| 2026-05-06 19:11 | 49.91853 | 12.95910 | 18759 ft | 387 kts | 96° |
| 2026-05-06 19:11 | 49.91717 | 13.00064 | 18358 ft | 385 kts | 95° |
| 2026-05-06 19:11 | 49.91579 | 13.04205 | 17954 ft | 384 kts | 95° |
| 2026-05-06 19:12 | 49.91441 | 13.08341 | 17548 ft | 383 kts | 95° |
| 2026-05-06 19:12 | 49.91302 | 13.12448 | 17146 ft | 381 kts | 95° |
| 2026-05-06 19:12 | 49.91163 | 13.16550 | 16746 ft | 380 kts | 95° |
| 2026-05-06 19:12 | 49.91022 | 13.20629 | 16349 ft | 378 kts | 96° |
| 2026-05-06 19:13 | 49.90880 | 13.24686 | 15957 ft | 376 kts | 95° |
| 2026-05-06 19:13 | 49.90740 | 13.28720 | 15576 ft | 374 kts | 95° |
| 2026-05-06 19:13 | 49.90602 | 13.32730 | 15188 ft | 371 kts | 95° |
| 2026-05-06 19:13 | 49.90463 | 13.36716 | 14799 ft | 369 kts | 95° |
| 2026-05-06 19:14 | 49.90313 | 13.40689 | 14414 ft | 368 kts | 95° |
| 2026-05-06 19:14 | 49.90158 | 13.44639 | 14022 ft | 366 kts | 95° |
| 2026-05-06 19:14 | 49.90082 | 13.48580 | 13643 ft | 366 kts | 93° |
| 2026-05-06 19:14 | 49.89919 | 13.52491 | 13269 ft | 359 kts | 97° |
| 2026-05-06 19:15 | 49.90183 | 13.56314 | 12874 ft | 361 kts | 70° |
| 2026-05-06 19:15 | 49.91371 | 13.59743 | 12868 ft | 363 kts | 58° |
| 2026-05-06 19:15 | 49.92755 | 13.62977 | 12754 ft | 354 kts | 57° |
| 2026-05-06 19:15 | 49.94016 | 13.66132 | 12779 ft | 333 kts | 60° |
| 2026-05-06 19:16 | 49.95351 | 13.68980 | 12752 ft | 322 kts | 42° |
| 2026-05-06 19:16 | 49.97110 | 13.71041 | 12618 ft | 316 kts | 34° |
| 2026-05-06 19:16 | 49.98897 | 13.73066 | 12220 ft | 321 kts | 38° |
| 2026-05-06 19:16 | 50.00687 | 13.75069 | 11928 ft | 315 kts | 34° |
| 2026-05-06 19:17 | 50.02496 | 13.77025 | 11523 ft | 320 kts | 34° |
| 2026-05-06 19:17 | 50.04462 | 13.78488 | 11344 ft | 308 kts | 16° |
| 2026-05-06 19:17 | 50.06468 | 13.79438 | 11249 ft | 295 kts | 17° |
| 2026-05-06 19:17 | 50.08404 | 13.80359 | 11171 ft | 286 kts | 16° |
| 2026-05-06 19:18 | 50.10278 | 13.81289 | 11076 ft | 279 kts | 15° |
| 2026-05-06 19:18 | 50.12138 | 13.82031 | 10791 ft | 272 kts | 13° |
| 2026-05-06 19:18 | 50.13970 | 13.82794 | 10288 ft | 274 kts | 13° |
| 2026-05-06 19:18 | 50.15800 | 13.83550 | 9880 ft | 271 kts | 15° |
| 2026-05-06 19:19 | 50.17639 | 13.84251 | 9491 ft | 270 kts | 3° |
| 2026-05-06 19:19 | 50.19461 | 13.83764 | 9204 ft | 269 kts | 328° |
| 2026-05-06 19:19 | 50.20819 | 13.81889 | 9081 ft | 257 kts | 307° |
| 2026-05-06 19:19 | 50.21937 | 13.79705 | 8807 ft | 259 kts | 305° |
| 2026-05-06 19:20 | 50.23040 | 13.77477 | 8801 ft | 261 kts | 304° |
| 2026-05-06 19:20 | 50.24132 | 13.75239 | 8772 ft | 257 kts | 305° |
| 2026-05-06 19:20 | 50.25215 | 13.73022 | 8639 ft | 256 kts | 305° |
| 2026-05-06 19:20 | 50.26401 | 13.70947 | 8345 ft | 260 kts | 323° |
| 2026-05-06 19:21 | 50.28053 | 13.69936 | 8286 ft | 256 kts | 355° |
| 2026-05-06 19:21 | 50.29794 | 13.70332 | 8251 ft | 258 kts | 25° |
| 2026-05-06 19:21 | 50.31239 | 13.72011 | 7998 ft | 263 kts | 54° |
| 2026-05-06 19:21 | 50.31993 | 13.74586 | 7755 ft | 261 kts | 83° |
| 2026-05-06 19:22 | 50.32080 | 13.77366 | 7522 ft | 253 kts | 91° |
| 2026-05-06 19:22 | 50.31886 | 13.80070 | 7229 ft | 251 kts | 116° |
| 2026-05-06 19:22 | 50.30986 | 13.82341 | 7087 ft | 243 kts | 126° |
| 2026-05-06 19:22 | 50.29953 | 13.84418 | 6825 ft | 240 kts | 129° |
| 2026-05-06 19:23 | 50.28956 | 13.86574 | 6825 ft | 250 kts | 127° |
| 2026-05-06 19:23 | 50.27968 | 13.88843 | 6671 ft | 252 kts | 127° |
| 2026-05-06 19:23 | 50.26958 | 13.91120 | 6339 ft | 254 kts | 125° |
| 2026-05-06 19:23 | 50.25953 | 13.93366 | 6004 ft | 250 kts | 128° |
| 2026-05-06 19:24 | 50.24904 | 13.95457 | 5691 ft | 246 kts | 129° |
| 2026-05-06 19:24 | 50.23863 | 13.97541 | 5389 ft | 240 kts | 128° |
| 2026-05-06 19:24 | 50.22880 | 13.99602 | 5046 ft | 232 kts | 128° |
| 2026-05-06 19:24 | 50.21912 | 14.01563 | 4746 ft | 224 kts | 127° |
| 2026-05-06 19:25 | 50.20983 | 14.03466 | 4451 ft | 217 kts | 127° |
| 2026-05-06 19:25 | 50.20089 | 14.05311 | 4169 ft | 209 kts | 126° |
| 2026-05-06 19:25 | 50.19235 | 14.07074 | 3913 ft | 201 kts | 125° |
| 2026-05-06 19:25 | 50.18400 | 14.08801 | 3643 ft | 195 kts | 125° |
| 2026-05-06 19:26 | 50.17596 | 14.10463 | 3377 ft | 189 kts | 124° |
| 2026-05-06 19:26 | 50.16832 | 14.12043 | 3137 ft | 176 kts | 123° |
| 2026-05-06 19:26 | 50.16107 | 14.13542 | 2925 ft | 171 kts | 123° |
| 2026-05-06 19:26 | 50.15417 | 14.14970 | 2699 ft | 158 kts | 123° |
| 2026-05-06 19:27 | 50.14777 | 14.16296 | 2489 ft | 151 kts | 125° |
| 2026-05-06 19:27 | 50.14113 | 14.17675 | 2307 ft | 165 kts | 126° |
| 2026-05-06 19:27 | 50.13415 | 14.19119 | 2072 ft | 167 kts | 126° |
| 2026-05-06 19:27 | 50.12720 | 14.20558 | 1838 ft | 165 kts | 126° |
| 2026-05-06 19:28 | 50.12040 | 14.21967 | 1628 ft | 161 kts | 126° |
| 2026-05-06 19:28 | 50.11368 | 14.23343 | 1404 ft | 158 kts | 126° |
| 2026-05-06 19:28 | 50.10721 | 14.24710 | 1188 ft | 156 kts | 126° |
| 2026-05-06 19:28 | 50.10121 | 14.25937 | 1189 ft | 119 kts | 126° |
| 2026-05-06 19:29 | 50.09745 | 14.26721 | 1207 ft | 62 kts | 126° |
| 2026-05-06 19:29 | 50.09539 | 14.27145 | 1206 ft | 38 kts | 127° |
| 2026-05-06 19:29 | 50.09435 | 14.27365 | 1208 ft | 16 kts | 126° |
| 2026-05-06 19:29 | 50.09462 | 14.27475 | 1210 ft | 12 kts | 37° |
| 2026-05-06 19:30 | 50.09517 | 14.27539 | 1212 ft | 8 kts | 37° |
| 2026-05-06 19:30 | 50.09533 | 14.27557 | 1212 ft | 0 kts | 37° |
| 2026-05-06 19:30 | 50.09533 | 14.27558 | 1212 ft | 1 kts | 37° |
| 2026-05-06 19:31 | 50.09550 | 14.27578 | 1212 ft | 6 kts | 37° |
| 2026-05-06 19:31 | 50.09603 | 14.27632 | 1210 ft | 12 kts | 23° |
| 2026-05-06 19:31 | 50.09787 | 14.27412 | 1204 ft | 19 kts | 315° |
| 2026-05-06 19:32 | 50.09879 | 14.27259 | 1201 ft | 19 kts | 306° |
| 2026-05-06 19:32 | 50.09955 | 14.27102 | 1198 ft | 18 kts | 307° |
| 2026-05-06 19:32 | 50.10030 | 14.26946 | 1193 ft | 18 kts | 307° |
| 2026-05-06 19:32 | 50.10103 | 14.26797 | 1183 ft | 17 kts | 307° |
| 2026-05-06 19:33 | 50.10172 | 14.26654 | 1174 ft | 16 kts | 306° |
| 2026-05-06 19:33 | 50.10238 | 14.26518 | 1173 ft | 16 kts | 307° |
| 2026-05-06 19:33 | 50.10302 | 14.26386 | 1177 ft | 15 kts | 306° |
| 2026-05-06 19:33 | 50.10363 | 14.26259 | 1174 ft | 14 kts | 307° |
| 2026-05-06 19:34 | 50.10420 | 14.26139 | 1180 ft | 13 kts | 306° |
| 2026-05-06 19:34 | 50.10475 | 14.26025 | 1175 ft | 13 kts | 307° |
| 2026-05-06 19:34 | 50.10527 | 14.25916 | 1172 ft | 12 kts | 304° |
| 2026-05-06 19:34 | 50.10577 | 14.25808 | 1171 ft | 12 kts | 319° |
| 2026-05-06 19:35 | 50.10650 | 14.25837 | 1170 ft | 12 kts | 34° |
| 2026-05-06 19:35 | 50.10716 | 14.25909 | 1172 ft | 11 kts | 36° |
| 2026-05-06 19:35 | 50.10780 | 14.25978 | 1169 ft | 11 kts | 34° |
| 2026-05-06 19:35 | 50.10842 | 14.26043 | 1168 ft | 11 kts | 34° |
| 2026-05-06 19:36 | 50.10882 | 14.26085 | 1168 ft | 10 kts | 34° |
| 2026-05-06 19:36 | 50.10940 | 14.26148 | 1166 ft | 10 kts | 34° |
| 2026-05-06 19:36 | 50.10975 | 14.26199 | 1170 ft | 6 kts | 72° |
| 2026-05-06 19:36 | 50.10959 | 14.26255 | 1170 ft | 6 kts | 124° |
| 2026-05-06 19:37 | 50.10950 | 14.26276 | 1170 ft | 2 kts | 124° |
| 2026-05-06 19:37 | 50.10946 | 14.26285 | 1170 ft | 0 kts | 124° |